Time;durP1;ratioP1;P1;durP2;ratioP2;P2;SDS_P1;SDS_P2;PMS_P1;PMS_P2;Temp;Humidity;BMP_temperature;BMP_pressure;BME280_temperature;BME280_humidity;BME280_pressure;Samples;Min_cycle;Max_cycle;Signal;HPM_P1;HPM_P2
2021/05/15 00:01:11;;;;;;;14.40;10.07;;;8.90;99.90;;;;;;5051148;28;20210;-71
2021/05/15 00:03:38;;;;;;;14.57;9.93;;;8.90;99.90;;;;;;5039722;28;20203;-71
2021/05/15 00:06:04;;;;;;;15.47;10.40;;;8.90;99.90;;;;;;5055669;28;20206;-71
2021/05/15 00:08:31;;;;;;;14.93;11.10;;;8.90;99.90;;;;;;5046310;28;20231;-71
2021/05/15 00:10:58;;;;;;;15.30;11.00;;;9.00;99.90;;;;;;5050726;28;20230;-71
2021/05/15 00:13:24;;;;;;;14.03;10.20;;;8.90;99.90;;;;;;5044409;28;20203;-71
2021/05/15 00:15:52;;;;;;;19.13;11.63;;;8.90;99.90;;;;;;5051080;28;20210;-72
2021/05/15 00:18:19;;;;;;;15.13;11.00;;;8.90;99.90;;;;;;5040858;28;20230;-71
2021/05/15 00:20:45;;;;;;;15.73;10.70;;;8.90;99.90;;;;;;5048227;28;20195;-71
2021/05/15 00:23:12;;;;;;;14.83;10.03;;;8.90;99.90;;;;;;5050190;28;20194;-71
2021/05/15 00:25:38;;;;;;;15.17;10.90;;;9.00;99.90;;;;;;5046380;28;20256;-72
2021/05/15 00:28:05;;;;;;;17.27;11.27;;;9.10;99.90;;;;;;5050404;28;20706;-71
2021/05/15 00:30:31;;;;;;;16.47;11.60;;;9.10;99.90;;;;;;5049895;28;20295;-71
2021/05/15 00:32:59;;;;;;;16.73;11.47;;;9.20;99.90;;;;;;5052002;28;20297;-71
2021/05/15 00:35:25;;;;;;;17.80;12.30;;;9.30;99.90;;;;;;5048860;28;20203;-71
2021/05/15 00:37:52;;;;;;;17.60;12.43;;;9.30;99.90;;;;;;5050922;28;20203;-72
2021/05/15 00:40:18;;;;;;;16.20;12.17;;;9.40;99.90;;;;;;5050814;28;20217;-72
2021/05/15 00:42:46;;;;;;;18.50;12.37;;;9.40;99.90;;;;;;5051408;28;20199;-72
2021/05/15 00:45:15;;;;;;;18.37;12.13;;;9.50;99.90;;;;;;5045854;28;20199;-71
2021/05/15 00:47:42;;;;;;;17.50;11.80;;;9.40;99.90;;;;;;5050028;28;20223;-71
2021/05/15 00:50:11;;;;;;;15.60;10.90;;;9.50;99.90;;;;;;5060233;28;20202;-71
2021/05/15 00:52:38;;;;;;;16.80;11.83;;;9.60;99.90;;;;;;5053490;28;20200;-71
2021/05/15 00:55:10;;;;;;;16.43;11.40;;;9.40;99.90;;;;;;5051049;28;20207;-71
2021/05/15 00:57:38;;;;;;;16.03;11.43;;;9.30;99.90;;;;;;5053468;28;20199;-72
2021/05/15 01:00:07;;;;;;;17.73;11.33;;;9.40;99.90;;;;;;5049856;28;20218;-71
2021/05/15 01:02:33;;;;;;;16.03;11.07;;;9.30;99.90;;;;;;5050146;28;20213;-71
2021/05/15 01:05:00;;;;;;;16.20;11.23;;;9.30;99.90;;;;;;5053194;28;20225;-71
2021/05/15 01:07:28;;;;;;;15.80;11.33;;;9.30;99.90;;;;;;5052844;28;20229;-72
2021/05/15 01:09:55;;;;;;;17.10;12.17;;;9.30;99.90;;;;;;5055022;28;20199;-72
2021/05/15 01:12:22;;;;;;;17.20;11.83;;;9.30;99.90;;;;;;5055001;28;20205;-72
2021/05/15 01:14:48;;;;;;;17.43;12.50;;;9.40;99.90;;;;;;5053521;28;20195;-71
2021/05/15 01:17:16;;;;;;;16.20;11.77;;;9.40;99.90;;;;;;5052608;28;20542;-71
2021/05/15 01:19:43;;;;;;;16.83;11.33;;;9.40;99.90;;;;;;5054477;28;20203;-71
2021/05/15 01:22:12;;;;;;;18.63;11.87;;;9.40;99.90;;;;;;5056645;28;20206;-71
2021/05/15 01:24:40;;;;;;;15.73;11.77;;;9.40;99.90;;;;;;5055044;28;20202;-72
2021/05/15 01:27:07;;;;;;;16.00;11.80;;;9.50;99.90;;;;;;5045514;28;20287;-71
2021/05/15 01:29:34;;;;;;;17.97;12.00;;;9.50;99.90;;;;;;5066097;28;20199;-71
2021/05/15 01:32:01;;;;;;;17.57;11.70;;;9.50;99.90;;;;;;5054457;28;20203;-71
2021/05/15 01:34:27;;;;;;;17.83;11.90;;;9.50;99.90;;;;;;5054421;28;20254;-71
2021/05/15 01:36:54;;;;;;;15.63;12.10;;;9.50;99.90;;;;;;5054960;28;20203;-71
2021/05/15 01:39:21;;;;;;;16.67;12.03;;;9.50;99.90;;;;;;5046773;28;20211;-72
2021/05/15 01:41:48;;;;;;;18.07;12.73;;;9.50;99.90;;;;;;5054087;28;20676;-71
2021/05/15 01:44:15;;;;;;;17.23;12.10;;;9.40;99.90;;;;;;5054532;28;20783;-72
2021/05/15 01:46:42;;;;;;;17.70;12.80;;;9.30;99.90;;;;;;5048795;28;20210;-72
2021/05/15 01:49:08;;;;;;;15.30;11.43;;;9.20;99.90;;;;;;5043697;28;20689;-71
2021/05/15 01:51:35;;;;;;;14.60;11.00;;;8.90;99.90;;;;;;5062675;28;20629;-71
2021/05/15 01:54:01;;;;;;;14.60;10.40;;;8.80;99.90;;;;;;5053539;28;20401;-71
2021/05/15 01:56:30;;;;;;;17.87;12.00;;;8.70;99.90;;;;;;5053262;28;20213;-71
2021/05/15 01:58:57;;;;;;;18.30;12.30;;;8.60;99.90;;;;;;5052958;28;20210;-71
2021/05/15 02:01:26;;;;;;;15.97;11.60;;;8.60;99.90;;;;;;5053756;28;20207;-71
2021/05/15 02:03:54;;;;;;;15.23;11.50;;;8.60;99.90;;;;;;5056412;28;20203;-72
2021/05/15 02:06:20;;;;;;;14.93;10.53;;;8.70;99.90;;;;;;5050274;28;20199;-71
2021/05/15 02:08:48;;;;;;;16.40;11.77;;;8.60;99.90;;;;;;5053828;28;20556;-71
2021/05/15 02:11:16;;;;;;;15.67;11.37;;;8.60;99.90;;;;;;5050030;28;20257;-72
2021/05/15 02:13:45;;;;;;;16.73;12.13;;;8.60;99.90;;;;;;5039352;28;20649;-71
2021/05/15 02:16:11;;;;;;;16.27;11.90;;;8.60;99.90;;;;;;5046555;28;20206;-71
2021/05/15 02:18:38;;;;;;;15.20;11.20;;;8.50;99.90;;;;;;5045538;28;20199;-71
2021/05/15 02:21:05;;;;;;;13.43;9.80;;;8.40;99.90;;;;;;5047351;28;20209;-71
2021/05/15 02:23:32;;;;;;;14.10;10.10;;;8.10;99.90;;;;;;5049798;28;20203;-71
2021/05/15 02:25:59;;;;;;;16.97;11.43;;;7.90;99.90;;;;;;5053000;28;20211;-71
2021/05/15 02:28:25;;;;;;;17.03;11.70;;;7.90;99.90;;;;;;5051978;28;20321;-71
2021/05/15 02:30:53;;;;;;;16.37;12.30;;;8.10;99.90;;;;;;5051442;28;20199;-71
2021/05/15 02:33:20;;;;;;;16.73;11.80;;;8.20;99.90;;;;;;5052673;28;20202;-71
2021/05/15 02:35:47;;;;;;;16.90;11.90;;;8.20;99.90;;;;;;5051264;28;20782;-71
2021/05/15 02:38:15;;;;;;;19.20;12.27;;;8.20;99.90;;;;;;5051069;28;20233;-72
2021/05/15 02:40:42;;;;;;;15.27;11.10;;;8.20;99.90;;;;;;5049125;28;20557;-72
2021/05/15 02:43:08;;;;;;;13.47;9.77;;;8.20;99.90;;;;;;5049058;28;20646;-72
2021/05/15 02:45:36;;;;;;;13.83;10.23;;;7.90;99.90;;;;;;5049718;28;20206;-72
2021/05/15 02:48:04;;;;;;;15.73;11.27;;;7.80;99.90;;;;;;5050114;28;20211;-72
2021/05/15 02:50:30;;;;;;;15.27;11.10;;;7.90;99.90;;;;;;5050779;28;20206;-72
2021/05/15 02:52:57;;;;;;;16.57;11.97;;;7.90;99.90;;;;;;5052550;28;20202;-72
2021/05/15 02:55:25;;;;;;;16.77;12.40;;;7.90;99.90;;;;;;5050412;28;20483;-71
2021/05/15 02:57:53;;;;;;;17.30;12.10;;;7.90;99.90;;;;;;5043162;28;20616;-72
2021/05/15 03:00:22;;;;;;;17.10;11.93;;;7.90;99.90;;;;;;5038979;28;20202;-72
2021/05/15 03:02:48;;;;;;;17.17;11.73;;;7.90;99.90;;;;;;5050550;28;20195;-72
2021/05/15 03:05:17;;;;;;;18.30;12.30;;;7.80;99.90;;;;;;5052225;28;20611;-72
2021/05/15 03:07:44;;;;;;;18.10;12.67;;;7.90;99.90;;;;;;5050166;28;20215;-72
2021/05/15 03:10:12;;;;;;;17.73;12.23;;;7.90;99.90;;;;;;5049918;28;20571;-72
2021/05/15 03:12:39;;;;;;;10.30;7.93;;;7.90;99.90;;;;;;5051054;28;20715;-72
2021/05/15 03:15:07;;;;;;;28.80;10.60;;;7.70;99.90;;;;;;5049273;28;20207;-72
2021/05/15 03:17:35;;;;;;;106.13;75.93;;;6.70;99.90;;;;;;5050781;28;20225;-72
2021/05/15 03:20:03;;;;;;;32.90;24.27;;;6.60;99.90;;;;;;5045673;28;20211;-72
2021/05/15 03:22:30;;;;;;;16.93;11.97;;;6.90;99.90;;;;;;5050340;28;20214;-72
2021/05/15 03:24:56;;;;;;;17.83;11.63;;;7.00;99.90;;;;;;5046073;28;20199;-72
2021/05/15 03:27:24;;;;;;;15.23;11.03;;;7.20;99.90;;;;;;5051747;28;20241;-72
2021/05/15 03:29:51;;;;;;;15.07;11.13;;;7.30;99.90;;;;;;5049105;28;20203;-72
2021/05/15 03:32:17;;;;;;;15.43;10.77;;;7.50;99.90;;;;;;5050912;28;20256;-71
2021/05/15 03:34:45;;;;;;;16.40;11.77;;;7.60;99.90;;;;;;5053105;28;20203;-72
2021/05/15 03:37:12;;;;;;;16.57;11.67;;;7.50;99.90;;;;;;5052009;28;20280;-72
2021/05/15 03:39:39;;;;;;;17.90;12.37;;;7.50;99.90;;;;;;5043913;28;20213;-72
2021/05/15 03:42:06;;;;;;;16.23;11.97;;;7.80;99.90;;;;;;5047372;28;20203;-72
2021/05/15 03:44:32;;;;;;;17.53;11.70;;;7.90;99.90;;;;;;5046919;28;20204;-72
2021/05/15 03:46:59;;;;;;;18.17;12.37;;;7.80;99.90;;;;;;5045722;28;20641;-72
2021/05/15 03:49:25;;;;;;;18.73;12.30;;;7.90;99.90;;;;;;5048468;28;20194;-72
2021/05/15 03:51:51;;;;;;;17.77;12.10;;;8.00;99.90;;;;;;5042615;28;20705;-72
2021/05/15 03:54:18;;;;;;;17.90;12.40;;;8.00;99.90;;;;;;5051154;28;20191;-72
2021/05/15 03:56:45;;;;;;;16.20;11.40;;;8.30;99.90;;;;;;5047124;28;20569;-72
2021/05/15 03:59:11;;;;;;;16.70;11.30;;;8.50;99.90;;;;;;5051437;28;20556;-72
2021/05/15 04:01:38;;;;;;;15.40;10.57;;;8.70;99.90;;;;;;5050845;28;20206;-72
2021/05/15 04:04:04;;;;;;;13.40;9.73;;;8.80;99.90;;;;;;5049516;28;20207;-72
2021/05/15 04:06:31;;;;;;;19.20;9.73;;;8.40;99.90;;;;;;5051629;28;20211;-72
2021/05/15 04:08:58;;;;;;;13.90;10.53;;;8.60;99.90;;;;;;5043635;28;20252;-72
2021/05/15 04:11:33;;;;;;;15.20;10.60;;;9.00;99.90;;;;;;5048315;28;20211;-72
2021/05/15 04:14:02;;;;;;;13.23;10.40;;;9.00;99.90;;;;;;5030750;28;20206;-72
2021/05/15 04:16:44;;;;;;;12.77;9.73;;;9.00;99.90;;;;;;5051858;28;20244;-72
2021/05/15 04:19:11;;;;;;;14.67;10.87;;;8.80;99.90;;;;;;5048160;28;20199;-72
2021/05/15 04:21:37;;;;;;;14.57;10.77;;;8.80;99.90;;;;;;5051192;28;20191;-72
2021/05/15 04:24:05;;;;;;;11.87;9.53;;;9.00;99.90;;;;;;5047397;28;20229;-72
2021/05/15 04:26:32;;;;;;;14.10;10.37;;;9.50;99.90;;;;;;5050491;28;20206;-72
2021/05/15 04:29:00;;;;;;;12.90;9.70;;;10.30;99.90;;;;;;5050493;28;20306;-71
2021/05/15 04:31:28;;;;;;;13.70;10.27;;;10.80;99.90;;;;;;5050383;28;20664;-71
2021/05/15 04:33:54;;;;;;;14.20;9.70;;;10.20;99.90;;;;;;5046229;28;20669;-71
2021/05/15 04:36:21;;;;;;;11.40;8.80;;;9.90;99.90;;;;;;5047930;28;20202;-71
2021/05/15 04:38:52;;;;;;;12.37;9.13;;;9.80;99.90;;;;;;5049463;28;20209;-71
2021/05/15 04:41:19;;;;;;;13.40;10.17;;;9.40;99.90;;;;;;5051693;28;20199;-71
2021/05/15 04:43:45;;;;;;;12.00;9.40;;;9.50;99.90;;;;;;5049590;28;20211;-71
2021/05/15 04:46:12;;;;;;;12.70;10.03;;;9.80;99.90;;;;;;5053959;28;20203;-71
2021/05/15 04:48:39;;;;;;;13.97;10.43;;;10.00;99.90;;;;;;5052268;28;20761;-71
2021/05/15 04:51:06;;;;;;;13.70;10.13;;;10.70;99.90;;;;;;5050696;28;20200;-71
2021/05/15 04:53:32;;;;;;;14.87;10.87;;;11.40;99.90;;;;;;5051124;28;20203;-72
2021/05/15 04:56:00;;;;;;;15.57;10.63;;;11.30;99.90;;;;;;5051121;28;20210;-72
2021/05/15 04:58:26;;;;;;;16.37;11.30;;;11.30;99.90;;;;;;5048160;28;20204;-71
2021/05/15 05:00:53;;;;;;;14.30;10.53;;;11.50;99.90;;;;;;5052068;28;20586;-71
2021/05/15 05:03:20;;;;;;;16.10;11.23;;;11.50;99.90;;;;;;5053179;28;20213;-71
2021/05/15 05:05:46;;;;;;;13.50;10.60;;;12.20;99.90;;;;;;5051757;28;20214;-71
2021/05/15 05:08:13;;;;;;;13.93;11.17;;;11.80;99.90;;;;;;5052064;28;20685;-71
2021/05/15 05:10:39;;;;;;;14.63;11.07;;;11.40;99.90;;;;;;5052768;28;20206;-71
2021/05/15 05:13:06;;;;;;;15.50;12.17;;;11.10;99.90;;;;;;5051860;28;20199;-71
2021/05/15 05:15:33;;;;;;;15.20;11.77;;;11.20;99.90;;;;;;5053634;28;20657;-71
2021/05/15 05:17:59;;;;;;;15.50;11.70;;;11.40;99.90;;;;;;5052841;28;20195;-71
2021/05/15 05:20:27;;;;;;;16.83;12.37;;;11.50;99.90;;;;;;5052206;28;20213;-71
2021/05/15 05:22:54;;;;;;;17.17;11.90;;;11.60;99.90;;;;;;5052499;28;20199;-71
2021/05/15 05:25:20;;;;;;;15.70;11.80;;;11.30;99.90;;;;;;5047761;28;20561;-71
2021/05/15 05:27:47;;;;;;;17.57;12.77;;;11.30;99.90;;;;;;5047270;28;20368;-71
2021/05/15 05:30:15;;;;;;;17.20;13.13;;;11.40;99.90;;;;;;5052253;28;20207;-71
2021/05/15 05:32:42;;;;;;;16.77;13.10;;;11.50;99.90;;;;;;5052073;28;20661;-71
2021/05/15 05:35:09;;;;;;;16.70;12.53;;;11.80;99.90;;;;;;5051742;28;20206;-71
2021/05/15 05:37:37;;;;;;;15.83;12.13;;;11.80;99.90;;;;;;5045985;28;20673;-71
2021/05/15 05:40:06;;;;;;;16.53;12.20;;;11.80;99.90;;;;;;5051364;28;20214;-71
2021/05/15 05:42:32;;;;;;;15.60;11.30;;;11.70;99.90;;;;;;5049648;28;20203;-71
2021/05/15 05:44:59;;;;;;;19.27;13.60;;;11.80;99.90;;;;;;5047873;28;20211;-71
2021/05/15 05:47:25;;;;;;;17.00;14.67;;;12.10;99.90;;;;;;5050182;28;20336;-71
2021/05/15 05:49:51;;;;;;;16.43;13.63;;;12.10;99.90;;;;;;5047970;28;20206;-71
2021/05/15 05:52:18;;;;;;;17.03;13.93;;;12.40;99.90;;;;;;5044976;28;20210;-72
2021/05/15 05:54:45;;;;;;;16.60;13.03;;;12.50;99.90;;;;;;5044866;28;20210;-71
2021/05/15 05:57:12;;;;;;;15.03;11.80;;;12.60;99.90;;;;;;5051714;28;20210;-73
2021/05/15 05:59:39;;;;;;;14.20;11.30;;;12.60;99.90;;;;;;5050975;28;20209;-73
2021/05/15 06:02:05;;;;;;;13.77;11.43;;;12.40;99.90;;;;;;5051643;28;20203;-73
2021/05/15 06:04:31;;;;;;;15.83;11.90;;;12.30;99.90;;;;;;5049410;28;20199;-73
2021/05/15 06:06:58;;;;;;;15.73;12.93;;;12.60;99.90;;;;;;5051945;28;20302;-72
2021/05/15 06:09:24;;;;;;;14.20;11.27;;;12.90;99.90;;;;;;5052179;28;20579;-73
2021/05/15 06:11:52;;;;;;;15.50;11.57;;;13.20;99.90;;;;;;5051902;28;20202;-73
2021/05/15 06:14:18;;;;;;;15.17;11.67;;;13.10;99.90;;;;;;5050041;28;20290;-73
2021/05/15 06:16:44;;;;;;;16.10;12.43;;;12.90;99.90;;;;;;5050921;28;20203;-73
2021/05/15 06:19:11;;;;;;;16.93;12.43;;;13.00;99.90;;;;;;5052056;28;20549;-72
2021/05/15 06:21:37;;;;;;;17.17;12.43;;;12.90;99.90;;;;;;5049631;28;20549;-73
2021/05/15 06:24:04;;;;;;;15.87;12.13;;;13.10;99.90;;;;;;5050900;28;20725;-72
2021/05/15 06:26:30;;;;;;;15.60;12.03;;;13.20;99.90;;;;;;5049149;28;20271;-73
2021/05/15 06:28:58;;;;;;;15.37;11.93;;;13.10;99.90;;;;;;5049767;28;20237;-73
2021/05/15 06:31:24;;;;;;;15.87;12.73;;;13.00;99.90;;;;;;5047888;28;20203;-73
2021/05/15 06:33:51;;;;;;;15.53;12.17;;;13.00;99.90;;;;;;5052001;28;20210;-73
2021/05/15 06:36:17;;;;;;;16.73;12.47;;;13.10;99.90;;;;;;5051030;28;20195;-73
2021/05/15 06:38:43;;;;;;;14.87;11.33;;;13.10;99.90;;;;;;5049174;28;20203;-73
2021/05/15 06:41:10;;;;;;;14.57;11.27;;;13.00;99.90;;;;;;5051716;28;20211;-72
2021/05/15 06:43:36;;;;;;;16.17;11.50;;;13.30;99.90;;;;;;5044417;28;20202;-72
2021/05/15 06:46:03;;;;;;;12.90;9.50;;;13.40;99.90;;;;;;5049814;28;20324;-72
2021/05/15 06:48:30;;;;;;;14.60;10.23;;;13.40;99.90;;;;;;5047056;28;20224;-73
2021/05/15 06:50:56;;;;;;;11.53;9.23;;;13.30;99.90;;;;;;5044372;28;20651;-73
2021/05/15 06:53:22;;;;;;;12.90;8.90;;;13.10;99.90;;;;;;5045937;28;20206;-73
2021/05/15 06:55:49;;;;;;;10.60;7.87;;;13.30;99.90;;;;;;5047463;28;20245;-73
2021/05/15 06:58:15;;;;;;;8.13;5.47;;;13.30;99.90;;;;;;5045224;28;20195;-72
2021/05/15 07:00:42;;;;;;;5.20;3.60;;;13.30;99.90;;;;;;5049480;28;20572;-73
2021/05/15 07:03:09;;;;;;;3.60;3.00;;;13.40;99.90;;;;;;5049135;28;20260;-73
2021/05/15 07:05:36;;;;;;;4.37;2.70;;;13.40;99.90;;;;;;5051197;28;20564;-73
2021/05/15 07:08:02;;;;;;;3.40;2.90;;;13.60;99.90;;;;;;5044835;28;20226;-73
2021/05/15 07:10:29;;;;;;;3.33;2.77;;;13.60;99.90;;;;;;5048363;28;20617;-73
2021/05/15 07:12:56;;;;;;;4.40;2.80;;;13.70;99.90;;;;;;5051430;28;20249;-73
2021/05/15 07:15:22;;;;;;;3.23;2.70;;;13.60;99.90;;;;;;5049593;28;20222;-72
2021/05/15 07:17:49;;;;;;;3.87;2.93;;;13.40;99.90;;;;;;5048463;28;20195;-72
2021/05/15 07:20:17;;;;;;;3.20;2.60;;;13.50;99.90;;;;;;5051488;28;20555;-73
2021/05/15 07:22:45;;;;;;;4.20;2.70;;;13.70;99.90;;;;;;5049558;28;20210;-72
2021/05/15 07:25:12;;;;;;;4.23;2.70;;;13.80;99.90;;;;;;5050319;28;20229;-72
2021/05/15 07:27:39;;;;;;;2.87;2.50;;;13.80;99.90;;;;;;5048551;28;20270;-72
2021/05/15 07:30:07;;;;;;;3.50;2.60;;;14.10;99.90;;;;;;5048746;28;20206;-73
2021/05/15 07:32:34;;;;;;;3.20;2.40;;;14.00;99.90;;;;;;5048409;28;20212;-73
2021/05/15 07:35:00;;;;;;;5.60;3.17;;;14.00;99.90;;;;;;5048246;28;20264;-72
2021/05/15 07:37:27;;;;;;;3.73;2.73;;;14.10;99.90;;;;;;5045522;28;20199;-72
2021/05/15 07:39:54;;;;;;;2.83;2.20;;;14.00;99.90;;;;;;5046599;28;20579;-73
2021/05/15 07:42:21;;;;;;;4.77;2.40;;;14.20;99.90;;;;;;5046261;28;20493;-73
2021/05/15 07:44:48;;;;;;;3.80;2.60;;;14.20;99.90;;;;;;5041450;28;20203;-73
2021/05/15 07:47:14;;;;;;;3.80;2.50;;;14.30;99.90;;;;;;5048629;28;20632;-72
2021/05/15 07:49:41;;;;;;;2.63;2.43;;;14.20;99.90;;;;;;5049377;28;20230;-72
2021/05/15 07:52:08;;;;;;;3.80;2.40;;;14.30;99.90;;;;;;5047111;28;20199;-73
2021/05/15 07:54:35;;;;;;;3.00;2.70;;;14.20;99.90;;;;;;5047032;28;20215;-73
2021/05/15 07:57:02;;;;;;;2.40;2.20;;;14.40;99.90;;;;;;5040523;28;20845;-73
2021/05/15 07:59:29;;;;;;;2.97;2.40;;;14.60;99.90;;;;;;5040811;28;20207;-73
2021/05/15 08:01:56;;;;;;;2.53;2.27;;;14.90;99.90;;;;;;5041831;28;20560;-72
2021/05/15 08:04:22;;;;;;;2.53;1.80;;;14.80;99.90;;;;;;5049643;28;20207;-73
2021/05/15 08:06:49;;;;;;;3.07;2.33;;;14.90;99.90;;;;;;5045468;28;20199;-73
2021/05/15 08:09:15;;;;;;;3.63;2.53;;;14.70;99.90;;;;;;5047790;28;20258;-73
2021/05/15 08:11:43;;;;;;;3.27;2.13;;;15.00;99.90;;;;;;5048182;28;20206;-73
2021/05/15 08:14:09;;;;;;;2.53;2.00;;;15.10;99.90;;;;;;5051026;28;20207;-73
2021/05/15 08:16:36;;;;;;;2.90;2.13;;;15.20;99.90;;;;;;5052770;28;20210;-73
2021/05/15 08:19:03;;;;;;;2.40;2.10;;;15.30;99.90;;;;;;5055297;28;20277;-73
2021/05/15 08:21:31;;;;;;;4.00;2.20;;;15.80;99.90;;;;;;5054044;28;20203;-73
2021/05/15 08:23:58;;;;;;;2.17;1.90;;;15.80;99.90;;;;;;5054888;28;20302;-73
2021/05/15 08:26:27;;;;;;;1.87;1.77;;;16.00;99.90;;;;;;5047663;28;20677;-73
2021/05/15 08:28:55;;;;;;;1.77;1.67;;;16.00;99.90;;;;;;5053855;28;20646;-73
2021/05/15 08:31:21;;;;;;;2.47;2.00;;;16.20;99.90;;;;;;5054414;28;20721;-73
2021/05/15 08:33:49;;;;;;;2.20;1.70;;;16.50;99.90;;;;;;5054387;28;20527;-73
2021/05/15 08:36:16;;;;;;;2.10;1.53;;;16.80;99.90;;;;;;5056726;28;20203;-73
2021/05/15 08:38:43;;;;;;;2.28;2.08;;;16.90;99.90;;;;;;5054210;28;20210;-73
2021/05/15 08:41:10;;;;;;;2.40;2.10;;;16.70;99.90;;;;;;5054956;28;20563;-73
2021/05/15 08:43:41;;;;;;;3.50;1.98;;;16.80;99.90;;;;;;5054190;28;20207;-73
2021/05/15 08:46:13;;;;;;;10.38;7.25;;;16.30;99.90;;;;;;5053792;28;20261;-72
2021/05/15 08:48:40;;;;;;;3.00;1.90;;;16.40;99.90;;;;;;5051465;28;20233;-73
2021/05/15 08:51:07;;;;;;;1.70;1.52;;;16.30;99.90;;;;;;5052502;28;20715;-73
2021/05/15 08:53:34;;;;;;;2.03;1.70;;;15.90;99.90;;;;;;5049259;28;20673;-73
2021/05/15 08:56:01;;;;;;;1.70;1.60;;;15.70;99.90;;;;;;5050015;28;20233;-73
2021/05/15 08:58:28;;;;;;;2.45;1.77;;;15.70;99.90;;;;;;5053230;28;20195;-73
2021/05/15 09:00:54;;;;;;;3.77;1.50;;;15.50;99.90;;;;;;5053217;28;20203;-72
2021/05/15 09:03:22;;;;;;;1.60;1.50;;;15.90;99.90;;;;;;5054120;28;20199;-73
2021/05/15 09:05:51;;;;;;;3.47;1.77;;;15.90;99.90;;;;;;5052501;28;20200;-73
2021/05/15 09:08:19;;;;;;;3.42;1.52;;;16.00;99.90;;;;;;5049619;28;20280;-73
2021/05/15 09:10:47;;;;;;;1.90;1.70;;;16.30;99.90;;;;;;5048058;28;20195;-73
2021/05/15 09:13:17;;;;;;;1.70;1.50;;;16.70;99.90;;;;;;5053967;28;20203;-73
2021/05/15 09:15:46;;;;;;;3.20;1.55;;;16.70;99.90;;;;;;5054087;28;20211;-73
2021/05/15 09:18:16;;;;;;;3.42;2.20;;;16.80;99.90;;;;;;5047288;28;20195;-73
2021/05/15 09:20:46;;;;;;;2.40;1.80;;;16.70;99.90;;;;;;5050655;28;20203;-73
2021/05/15 09:23:15;;;;;;;3.27;1.53;;;16.70;99.90;;;;;;5051424;28;20238;-72
2021/05/15 09:25:43;;;;;;;2.83;1.60;;;16.60;99.90;;;;;;5044297;28;20203;-73
2021/05/15 09:28:10;;;;;;;1.80;1.30;;;16.50;99.90;;;;;;5044887;28;20689;-72
2021/05/15 09:30:37;;;;;;;2.80;1.30;;;16.10;99.90;;;;;;5046844;28;20195;-73
2021/05/15 09:33:14;;;;;;;2.35;1.38;;;15.70;99.90;;;;;;5047359;28;20199;-73
2021/05/15 09:35:40;;;;;;;1.10;1.00;;;15.60;99.90;;;;;;5044333;28;20203;-73
2021/05/15 09:38:08;;;;;;;1.97;1.10;;;15.50;99.90;;;;;;5045218;28;20237;-73
2021/05/15 09:40:35;;;;;;;2.13;0.73;;;15.60;99.90;;;;;;5044849;28;20222;-73
2021/05/15 09:43:03;;;;;;;1.20;1.00;;;15.70;99.90;;;;;;5048158;28;20238;-73
2021/05/15 09:45:31;;;;;;;1.60;0.80;;;15.70;99.90;;;;;;5045572;28;20204;-72
2021/05/15 09:47:59;;;;;;;0.90;0.90;;;15.70;99.90;;;;;;5048407;28;20234;-73
2021/05/15 09:50:28;;;;;;;2.17;1.07;;;15.60;99.90;;;;;;5039285;28;20208;-73
2021/05/15 09:53:15;;;;;;;2.20;1.00;;;15.50;99.90;;;;;;5040988;28;20203;-73
2021/05/15 09:55:44;;;;;;;3.40;1.00;;;15.40;99.90;;;;;;5042926;28;20666;-73
2021/05/15 09:58:12;;;;;;;11.67;2.60;;;15.20;99.90;;;;;;5037728;28;20920;-73
2021/05/15 10:00:46;;;;;;;4.90;1.93;;;14.60;99.90;;;;;;5041710;28;20203;-73
2021/05/15 10:03:20;;;;;;;11.27;2.70;;;14.00;99.90;;;;;;5040057;28;20317;-73
2021/05/15 10:05:58;;;;;;;3.23;1.93;;;12.90;99.90;;;;;;5040420;28;20293;-73
2021/05/15 10:08:26;;;;;;;4.10;2.20;;;11.80;99.90;;;;;;5040219;28;20257;-73
2021/05/15 10:10:53;;;;;;;4.87;2.20;;;12.00;99.90;;;;;;5040090;28;20202;-73
2021/05/15 10:13:20;;;;;;;7.67;2.47;;;12.00;99.90;;;;;;5041075;28;20199;-73
2021/05/15 10:15:47;;;;;;;3.80;2.07;;;12.00;99.90;;;;;;5047799;28;20202;-73
2021/05/15 10:18:13;;;;;;;46.77;4.63;;;12.40;99.90;;;;;;5044682;28;20214;-73
2021/05/15 10:20:40;;;;;;;3.07;2.40;;;13.20;99.90;;;;;;5044330;28;20211;-73
2021/05/15 10:23:19;;;;;;;7.87;2.20;;;13.70;99.90;;;;;;5037514;28;20208;-73
2021/05/15 10:25:48;;;;;;;2.20;2.00;;;14.50;99.90;;;;;;5043164;28;20210;-72
2021/05/15 10:28:25;;;;;;;3.73;2.37;;;14.90;99.90;;;;;;5044456;28;20233;-72
2021/05/15 10:31:07;;;;;;;3.83;2.60;;;15.60;99.90;;;;;;5044283;28;20210;-73
2021/05/15 10:33:34;;;;;;;4.37;2.80;;;15.70;99.90;;;;;;5041188;28;20207;-73
2021/05/15 10:36:03;;;;;;;2.57;1.60;;;15.90;99.90;;;;;;5040000;28;20527;-73
2021/05/15 10:38:32;;;;;;;1.40;1.20;;;15.40;99.90;;;;;;5043635;28;20279;-73
2021/05/15 10:41:14;;;;;;;1.87;1.77;;;15.30;99.90;;;;;;5044436;28;20211;-73
2021/05/15 10:43:43;;;;;;;1.97;1.70;;;15.20;99.90;;;;;;5043129;28;20680;-73
2021/05/15 10:46:25;;;;;;;2.50;1.80;;;14.90;99.90;;;;;;5045001;28;20546;-73
2021/05/15 10:49:04;;;;;;;1.37;1.27;;;14.90;99.90;;;;;;5045970;28;20223;-73
2021/05/15 10:51:39;;;;;;;2.33;2.13;;;14.40;99.90;;;;;;5045828;28;20214;-72
2021/05/15 10:54:06;;;;;;;3.23;2.43;;;14.00;99.90;;;;;;5045990;28;20234;-73
2021/05/15 10:56:34;;;;;;;3.63;1.40;;;13.70;99.90;;;;;;5049885;28;20264;-73
2021/05/15 10:59:06;;;;;;;1.30;1.30;;;13.60;99.90;;;;;;5044096;28;20777;-72
2021/05/15 11:01:44;;;;;;;1.50;1.40;;;13.40;99.90;;;;;;5040244;28;20683;-72
2021/05/15 11:04:29;;;;;;;1.60;1.50;;;13.20;99.90;;;;;;5042933;28;20222;-73
2021/05/15 11:07:03;;;;;;;1.93;1.40;;;12.90;99.90;;;;;;5044239;28;20199;-73
2021/05/15 11:09:31;;;;;;;3.10;1.80;;;12.70;99.90;;;;;;5043170;28;20229;-73
2021/05/15 11:12:11;;;;;;;2.30;1.70;;;12.50;99.90;;;;;;5039709;28;20318;-73
2021/05/15 11:14:39;;;;;;;4.80;1.73;;;12.50;99.90;;;;;;5044806;28;20211;-73
2021/05/15 11:17:16;;;;;;;4.90;1.67;;;12.60;99.90;;;;;;5046737;28;20221;-73
2021/05/15 11:19:50;;;;;;;1.70;1.60;;;12.60;99.90;;;;;;5042692;28;20689;-73
2021/05/15 11:22:18;;;;;;;1.27;1.23;;;12.70;99.90;;;;;;5042285;28;20198;-73
2021/05/15 11:24:53;;;;;;;2.63;1.57;;;13.10;99.90;;;;;;5040176;28;20211;-73
2021/05/15 11:27:22;;;;;;;2.03;1.70;;;13.50;99.90;;;;;;5041751;28;20204;-73
2021/05/15 11:30:02;;;;;;;1.90;1.80;;;13.80;99.90;;;;;;5045714;28;20219;-73
2021/05/15 11:32:29;;;;;;;1.60;1.50;;;14.30;99.90;;;;;;5044707;28;20670;-73
2021/05/15 11:34:56;;;;;;;5.40;1.60;;;14.50;99.90;;;;;;5046849;28;20207;-73
2021/05/15 11:37:23;;;;;;;2.30;2.10;;;15.20;99.90;;;;;;5049322;28;20238;-73
2021/05/15 11:39:52;;;;;;;5.97;2.10;;;16.10;99.90;;;;;;5043624;28;20253;-73
2021/05/15 11:42:20;;;;;;;0.80;0.80;;;16.30;99.90;;;;;;5045924;28;20264;-73
2021/05/15 11:44:53;;;;;;;3.40;1.07;;;15.70;99.90;;;;;;5046610;28;20233;-73
2021/05/15 11:47:22;;;;;;;0.60;0.60;;;16.00;99.90;;;;;;5046558;28;20210;-73
2021/05/15 11:49:56;;;;;;;1.07;0.60;;;16.50;99.90;;;;;;5044794;28;20747;-73
2021/05/15 11:52:30;;;;;;;1.43;0.63;;;16.20;99.90;;;;;;5027851;28;20333;-73
2021/05/15 11:54:57;;;;;;;0.60;0.60;;;16.20;99.90;;;;;;5043065;28;20211;-73
2021/05/15 11:57:27;;;;;;;0.97;0.70;;;16.10;99.90;;;;;;5043310;28;20203;-73
2021/05/15 11:59:54;;;;;;;0.77;0.77;;;15.70;99.90;;;;;;5045063;28;20211;-73
2021/05/15 12:02:24;;;;;;;2.63;1.00;;;15.40;99.90;;;;;;5040742;28;20708;-73
2021/05/15 12:04:51;;;;;;;0.70;0.70;;;15.40;99.90;;;;;;5040845;28;20208;-72
2021/05/15 12:07:17;;;;;;;0.50;0.50;;;15.10;99.90;;;;;;5037073;28;20235;-72
2021/05/15 12:09:44;;;;;;;0.50;0.50;;;14.80;99.90;;;;;;5038388;28;20277;-72
2021/05/15 12:12:11;;;;;;;0.60;0.60;;;14.40;99.90;;;;;;5041324;28;20206;-72
2021/05/15 12:14:40;;;;;;;1.10;0.67;;;14.10;99.90;;;;;;5043953;28;20226;-72
2021/05/15 12:17:08;;;;;;;2.00;1.10;;;14.00;99.90;;;;;;5041773;28;20238;-72
2021/05/15 12:19:35;;;;;;;1.10;1.00;;;13.80;99.90;;;;;;5040758;28;20213;-72
2021/05/15 12:22:03;;;;;;;1.07;0.97;;;13.70;99.90;;;;;;5040747;28;20214;-72
2021/05/15 12:24:35;;;;;;;0.73;0.73;;;13.70;99.90;;;;;;5044299;28;20672;-72
2021/05/15 12:27:13;;;;;;;1.20;1.10;;;13.70;99.90;;;;;;5044386;28;20233;-72
2021/05/15 12:29:42;;;;;;;0.70;0.70;;;13.80;99.90;;;;;;5039922;28;20226;-72
2021/05/15 12:32:09;;;;;;;1.77;0.90;;;13.80;99.90;;;;;;5043215;28;20222;-72
2021/05/15 12:34:37;;;;;;;2.87;0.60;;;14.00;99.90;;;;;;5040991;28;20211;-71
2021/05/15 12:37:14;;;;;;;0.80;0.80;;;14.10;99.90;;;;;;5034016;28;20215;-72
2021/05/15 12:39:40;;;;;;;0.70;0.70;;;14.30;99.90;;;;;;5043693;28;20257;-72
2021/05/15 12:42:07;;;;;;;0.70;0.70;;;15.10;99.90;;;;;;5041755;28;20210;-72
2021/05/15 12:44:39;;;;;;;0.80;0.80;;;15.10;99.90;;;;;;5044146;28;20203;-72